West Rush, New York
Current Conditions -  °F | °C
As of 9:54 PM on Wednesday 26 Nov 2014 (Local Time) from KROC Reporting Station
Light Snow Light Snow  
Wind Chill: 25°   Ceiling: 1300
Heat Index: 31°   Visibility: 7mi
Dew Point: 28°   Wind: 6mph
Humidity: 89%   Direction: 30°NNE
Pressure: 30.04"   Gusts: NA
Location:  42.9942°N, 77.6714°W
Report Text: KROC 270254Z 03005KT 7SM -SN FEW007 BKN013 OVC020 M01/M02 A3004 RMK AO2 SLP183 P0000 60001 T10061022 56011
Loading
Personal Weather Stations






























Interactive Weather Map New forecast layout! Learn more

10-Day Weather Forecast

Advertisements
Track Severe Weather on mobile